sensor_id;sensor_type;location;lat;lon;timestamp;P1;durP1;ratioP1;P2;durP2;ratioP2
63259;SDS011;49390;51.380;0.098;2022-09-12T00:01:28;46.05;;;19.10;;
63259;SDS011;49390;51.380;0.098;2022-09-12T00:03:58;37.88;;;17.48;;
63259;SDS011;49390;51.380;0.098;2022-09-12T00:06:30;41.88;;;17.17;;
63259;SDS011;49390;51.380;0.098;2022-09-12T00:09:05;44.05;;;17.23;;
63259;SDS011;49390;51.380;0.098;2022-09-12T00:11:36;38.10;;;17.05;;
63259;SDS011;49390;51.380;0.098;2022-09-12T00:16:36;37.05;;;15.60;;
63259;SDS011;49390;51.380;0.098;2022-09-12T00:19:05;35.45;;;15.95;;
63259;SDS011;49390;51.380;0.098;2022-09-12T00:21:36;37.83;;;16.52;;
63259;SDS011;49390;51.380;0.098;2022-09-12T00:24:06;34.78;;;15.32;;
63259;SDS011;49390;51.380;0.098;2022-09-12T00:26:35;35.67;;;14.73;;
63259;SDS011;49390;51.380;0.098;2022-09-12T00:29:03;37.63;;;14.52;;
63259;SDS011;49390;51.380;0.098;2022-09-12T00:31:32;43.83;;;16.48;;
63259;SDS011;49390;51.380;0.098;2022-09-12T00:34:01;39.55;;;17.08;;
63259;SDS011;49390;51.380;0.098;2022-09-12T00:36:30;36.05;;;14.43;;
63259;SDS011;49390;51.380;0.098;2022-09-12T00:38:58;38.58;;;16.02;;
63259;SDS011;49390;51.380;0.098;2022-09-12T00:41:32;39.05;;;16.95;;
63259;SDS011;49390;51.380;0.098;2022-09-12T00:46:41;40.15;;;16.38;;
63259;SDS011;49390;51.380;0.098;2022-09-12T00:51:47;40.90;;;16.55;;
63259;SDS011;49390;51.380;0.098;2022-09-12T00:54:23;46.30;;;18.15;;
63259;SDS011;49390;51.380;0.098;2022-09-12T00:56:55;42.42;;;17.73;;
63259;SDS011;49390;51.380;0.098;2022-09-12T00:59:28;39.65;;;17.05;;
63259;SDS011;49390;51.380;0.098;2022-09-12T01:02:06;47.17;;;19.45;;
63259;SDS011;49390;51.380;0.098;2022-09-12T01:04:35;54.88;;;19.05;;
63259;SDS011;49390;51.380;0.098;2022-09-12T01:07:05;43.38;;;18.15;;
63259;SDS011;49390;51.380;0.098;2022-09-12T01:09:34;43.05;;;18.85;;
63259;SDS011;49390;51.380;0.098;2022-09-12T01:12:04;45.53;;;19.75;;
63259;SDS011;49390;51.380;0.098;2022-09-12T01:14:33;44.22;;;18.25;;
63259;SDS011;49390;51.380;0.098;2022-09-12T01:17:01;45.72;;;19.45;;
63259;SDS011;49390;51.380;0.098;2022-09-12T01:22:28;41.15;;;19.50;;
63259;SDS011;49390;51.380;0.098;2022-09-12T01:30:48;55.17;;;20.88;;
63259;SDS011;49390;51.380;0.098;2022-09-12T01:36:20;53.35;;;21.20;;
63259;SDS011;49390;51.380;0.098;2022-09-12T01:39:15;50.13;;;21.20;;
63259;SDS011;49390;51.380;0.098;2022-09-12T01:44:53;50.80;;;20.30;;
63259;SDS011;49390;51.380;0.098;2022-09-12T01:47:44;50.67;;;20.47;;
63259;SDS011;49390;51.380;0.098;2022-09-12T01:50:30;52.33;;;20.45;;
63259;SDS011;49390;51.380;0.098;2022-09-12T01:53:08;51.63;;;21.48;;
63259;SDS011;49390;51.380;0.098;2022-09-12T01:56:07;48.90;;;20.38;;
63259;SDS011;49390;51.380;0.098;2022-09-12T02:01:27;46.90;;;19.17;;
63259;SDS011;49390;51.380;0.098;2022-09-12T02:06:31;46.40;;;18.45;;
63259;SDS011;49390;51.380;0.098;2022-09-12T02:09:14;41.40;;;17.88;;
63259;SDS011;49390;51.380;0.098;2022-09-12T02:11:56;39.88;;;17.02;;
63259;SDS011;49390;51.380;0.098;2022-09-12T02:14:28;39.22;;;16.58;;
63259;SDS011;49390;51.380;0.098;2022-09-12T02:17:08;42.83;;;17.35;;
63259;SDS011;49390;51.380;0.098;2022-09-12T02:19:40;40.20;;;16.45;;
63259;SDS011;49390;51.380;0.098;2022-09-12T02:22:14;36.35;;;16.45;;
63259;SDS011;49390;51.380;0.098;2022-09-12T02:24:47;38.80;;;16.13;;
63259;SDS011;49390;51.380;0.098;2022-09-12T02:27:20;37.10;;;16.15;;
63259;SDS011;49390;51.380;0.098;2022-09-12T02:29:53;33.28;;;16.08;;
63259;SDS011;49390;51.380;0.098;2022-09-12T02:32:25;32.03;;;15.20;;
63259;SDS011;49390;51.380;0.098;2022-09-12T02:40:31;29.70;;;13.65;;
63259;SDS011;49390;51.380;0.098;2022-09-12T02:43:01;32.17;;;14.25;;
63259;SDS011;49390;51.380;0.098;2022-09-12T02:45:30;28.63;;;12.23;;
63259;SDS011;49390;51.380;0.098;2022-09-12T02:48:02;27.35;;;12.43;;
63259;SDS011;49390;51.380;0.098;2022-09-12T02:50:35;32.38;;;13.32;;
63259;SDS011;49390;51.380;0.098;2022-09-12T02:53:04;28.58;;;13.65;;
63259;SDS011;49390;51.380;0.098;2022-09-12T02:55:35;27.13;;;14.18;;
63259;SDS011;49390;51.380;0.098;2022-09-12T02:58:06;28.83;;;13.05;;
63259;SDS011;49390;51.380;0.098;2022-09-12T03:00:46;32.45;;;14.13;;
63259;SDS011;49390;51.380;0.098;2022-09-12T03:06:41;30.35;;;13.68;;
63259;SDS011;49390;51.380;0.098;2022-09-12T03:12:19;32.28;;;13.45;;
63259;SDS011;49390;51.380;0.098;2022-09-12T03:23:20;27.73;;;12.90;;
63259;SDS011;49390;51.380;0.098;2022-09-12T03:26:08;28.75;;;13.13;;
63259;SDS011;49390;51.380;0.098;2022-09-12T03:28:44;28.90;;;13.20;;
63259;SDS011;49390;51.380;0.098;2022-09-12T03:31:17;29.67;;;12.10;;
63259;SDS011;49390;51.380;0.098;2022-09-12T03:33:45;23.42;;;12.52;;
63259;SDS011;49390;51.380;0.098;2022-09-12T03:36:23;29.48;;;12.40;;
63259;SDS011;49390;51.380;0.098;2022-09-12T03:38:53;25.90;;;11.88;;
63259;SDS011;49390;51.380;0.098;2022-09-12T03:41:22;25.67;;;12.68;;
63259;SDS011;49390;51.380;0.098;2022-09-12T03:43:52;32.17;;;13.35;;
63259;SDS011;49390;51.380;0.098;2022-09-12T03:46:23;32.55;;;12.93;;
63259;SDS011;49390;51.380;0.098;2022-09-12T03:48:51;24.45;;;12.50;;
63259;SDS011;49390;51.380;0.098;2022-09-12T03:51:19;25.17;;;12.00;;
63259;SDS011;49390;51.380;0.098;2022-09-12T03:53:47;25.90;;;12.10;;
63259;SDS011;49390;51.380;0.098;2022-09-12T03:56:15;34.15;;;14.38;;
63259;SDS011;49390;51.380;0.098;2022-09-12T03:58:45;27.80;;;12.82;;
63259;SDS011;49390;51.380;0.098;2022-09-12T04:01:16;30.13;;;13.55;;
63259;SDS011;49390;51.380;0.098;2022-09-12T04:03:46;28.13;;;12.90;;
63259;SDS011;49390;51.380;0.098;2022-09-12T04:06:18;25.80;;;12.85;;
63259;SDS011;49390;51.380;0.098;2022-09-12T04:08:49;30.73;;;13.52;;
63259;SDS011;49390;51.380;0.098;2022-09-12T04:11:19;28.33;;;13.52;;
63259;SDS011;49390;51.380;0.098;2022-09-12T04:13:49;33.25;;;14.70;;
63259;SDS011;49390;51.380;0.098;2022-09-12T04:16:18;27.50;;;13.07;;
63259;SDS011;49390;51.380;0.098;2022-09-12T04:18:47;29.90;;;13.25;;
63259;SDS011;49390;51.380;0.098;2022-09-12T04:21:16;29.13;;;13.55;;
63259;SDS011;49390;51.380;0.098;2022-09-12T04:23:45;30.40;;;14.30;;
63259;SDS011;49390;51.380;0.098;2022-09-12T04:26:14;26.58;;;12.55;;
63259;SDS011;49390;51.380;0.098;2022-09-12T04:28:44;27.88;;;13.02;;
63259;SDS011;49390;51.380;0.098;2022-09-12T04:31:15;28.23;;;14.30;;
63259;SDS011;49390;51.380;0.098;2022-09-12T04:33:44;30.90;;;13.50;;
63259;SDS011;49390;51.380;0.098;2022-09-12T04:36:14;29.02;;;13.30;;
63259;SDS011;49390;51.380;0.098;2022-09-12T04:38:44;27.42;;;12.70;;
63259;SDS011;49390;51.380;0.098;2022-09-12T04:41:16;27.70;;;13.88;;
63259;SDS011;49390;51.380;0.098;2022-09-12T04:46:15;24.67;;;12.43;;
63259;SDS011;49390;51.380;0.098;2022-09-12T04:48:47;28.33;;;13.02;;
63259;SDS011;49390;51.380;0.098;2022-09-12T04:51:25;26.77;;;12.85;;
63259;SDS011;49390;51.380;0.098;2022-09-12T04:53:55;29.23;;;13.40;;
63259;SDS011;49390;51.380;0.098;2022-09-12T04:56:27;26.50;;;12.35;;
63259;SDS011;49390;51.380;0.098;2022-09-12T04:58:59;24.70;;;12.65;;
63259;SDS011;49390;51.380;0.098;2022-09-12T05:01:28;27.08;;;12.70;;
63259;SDS011;49390;51.380;0.098;2022-09-12T05:03:57;28.60;;;12.45;;
63259;SDS011;49390;51.380;0.098;2022-09-12T05:06:28;27.52;;;12.95;;
63259;SDS011;49390;51.380;0.098;2022-09-12T05:09:00;28.42;;;12.57;;
63259;SDS011;49390;51.380;0.098;2022-09-12T05:11:31;29.37;;;13.10;;
63259;SDS011;49390;51.380;0.098;2022-09-12T05:14:24;26.55;;;13.05;;
63259;SDS011;49390;51.380;0.098;2022-09-12T05:16:53;26.00;;;12.57;;
63259;SDS011;49390;51.380;0.098;2022-09-12T05:19:26;28.13;;;13.25;;
63259;SDS011;49390;51.380;0.098;2022-09-12T05:21:57;29.08;;;12.82;;
63259;SDS011;49390;51.380;0.098;2022-09-12T05:24:25;31.60;;;13.20;;
63259;SDS011;49390;51.380;0.098;2022-09-12T05:26:55;27.15;;;13.55;;
63259;SDS011;49390;51.380;0.098;2022-09-12T05:29:23;27.25;;;13.23;;
63259;SDS011;49390;51.380;0.098;2022-09-12T05:31:52;26.95;;;13.32;;
63259;SDS011;49390;51.380;0.098;2022-09-12T05:34:21;26.73;;;13.13;;
63259;SDS011;49390;51.380;0.098;2022-09-12T05:36:49;28.13;;;13.30;;
63259;SDS011;49390;51.380;0.098;2022-09-12T05:39:17;29.15;;;13.85;;
63259;SDS011;49390;51.380;0.098;2022-09-12T05:41:46;26.10;;;12.57;;
63259;SDS011;49390;51.380;0.098;2022-09-12T05:44:14;28.02;;;12.85;;
63259;SDS011;49390;51.380;0.098;2022-09-12T05:46:43;26.95;;;11.95;;
63259;SDS011;49390;51.380;0.098;2022-09-12T05:49:16;28.08;;;12.60;;
63259;SDS011;49390;51.380;0.098;2022-09-12T05:51:45;24.67;;;12.30;;
63259;SDS011;49390;51.380;0.098;2022-09-12T05:54:16;28.60;;;11.93;;
63259;SDS011;49390;51.380;0.098;2022-09-12T05:56:46;25.58;;;12.30;;
63259;SDS011;49390;51.380;0.098;2022-09-12T05:59:16;21.90;;;11.05;;
63259;SDS011;49390;51.380;0.098;2022-09-12T06:01:48;26.13;;;11.95;;
63259;SDS011;49390;51.380;0.098;2022-09-12T06:04:16;23.95;;;11.63;;
63259;SDS011;49390;51.380;0.098;2022-09-12T06:06:45;23.83;;;11.20;;
63259;SDS011;49390;51.380;0.098;2022-09-12T06:09:14;20.50;;;10.70;;
63259;SDS011;49390;51.380;0.098;2022-09-12T06:11:43;24.23;;;10.93;;
63259;SDS011;49390;51.380;0.098;2022-09-12T06:14:15;20.00;;;10.68;;
63259;SDS011;49390;51.380;0.098;2022-09-12T06:16:44;19.25;;;10.23;;
63259;SDS011;49390;51.380;0.098;2022-09-12T06:19:16;21.50;;;10.15;;
63259;SDS011;49390;51.380;0.098;2022-09-12T06:21:49;17.35;;;10.13;;
63259;SDS011;49390;51.380;0.098;2022-09-12T06:24:20;22.00;;;10.38;;
63259;SDS011;49390;51.380;0.098;2022-09-12T06:26:49;23.15;;;10.68;;
63259;SDS011;49390;51.380;0.098;2022-09-12T06:29:19;20.15;;;9.68;;
63259;SDS011;49390;51.380;0.098;2022-09-12T06:31:47;23.63;;;10.65;;
63259;SDS011;49390;51.380;0.098;2022-09-12T06:34:16;21.08;;;10.65;;
63259;SDS011;49390;51.380;0.098;2022-09-12T06:36:46;19.65;;;9.90;;
63259;SDS011;49390;51.380;0.098;2022-09-12T06:39:17;18.90;;;9.98;;
63259;SDS011;49390;51.380;0.098;2022-09-12T06:41:47;24.53;;;9.77;;
63259;SDS011;49390;51.380;0.098;2022-09-12T06:44:19;15.63;;;8.68;;
63259;SDS011;49390;51.380;0.098;2022-09-12T06:46:49;14.85;;;8.40;;
63259;SDS011;49390;51.380;0.098;2022-09-12T06:49:18;15.98;;;8.65;;
63259;SDS011;49390;51.380;0.098;2022-09-12T06:51:47;18.73;;;8.88;;
63259;SDS011;49390;51.380;0.098;2022-09-12T06:54:16;17.30;;;8.60;;
63259;SDS011;49390;51.380;0.098;2022-09-12T06:56:45;17.83;;;8.10;;
63259;SDS011;49390;51.380;0.098;2022-09-12T06:59:14;14.98;;;8.43;;
63259;SDS011;49390;51.380;0.098;2022-09-12T07:01:44;17.08;;;7.95;;
63259;SDS011;49390;51.380;0.098;2022-09-12T07:04:12;20.52;;;8.65;;
63259;SDS011;49390;51.380;0.098;2022-09-12T07:06:40;15.30;;;8.30;;
63259;SDS011;49390;51.380;0.098;2022-09-12T07:09:12;17.90;;;8.18;;
63259;SDS011;49390;51.380;0.098;2022-09-12T07:11:45;15.95;;;8.88;;
63259;SDS011;49390;51.380;0.098;2022-09-12T07:14:14;18.88;;;7.85;;
63259;SDS011;49390;51.380;0.098;2022-09-12T07:16:42;18.88;;;8.43;;
63259;SDS011;49390;51.380;0.098;2022-09-12T07:19:10;16.30;;;8.55;;
63259;SDS011;49390;51.380;0.098;2022-09-12T07:21:39;17.50;;;8.70;;
63259;SDS011;49390;51.380;0.098;2022-09-12T07:24:10;17.23;;;8.05;;
63259;SDS011;49390;51.380;0.098;2022-09-12T07:26:41;17.40;;;8.50;;
63259;SDS011;49390;51.380;0.098;2022-09-12T07:31:31;14.77;;;7.85;;
63259;SDS011;49390;51.380;0.098;2022-09-12T07:34:03;15.50;;;7.60;;
63259;SDS011;49390;51.380;0.098;2022-09-12T07:36:33;17.10;;;7.80;;
63259;SDS011;49390;51.380;0.098;2022-09-12T07:39:06;13.63;;;7.22;;
63259;SDS011;49390;51.380;0.098;2022-09-12T07:41:35;16.13;;;7.97;;
63259;SDS011;49390;51.380;0.098;2022-09-12T07:44:03;15.10;;;7.93;;
63259;SDS011;49390;51.380;0.098;2022-09-12T07:46:33;15.52;;;7.65;;
63259;SDS011;49390;51.380;0.098;2022-09-12T07:49:02;18.80;;;8.13;;
63259;SDS011;49390;51.380;0.098;2022-09-12T07:51:31;15.60;;;7.47;;
63259;SDS011;49390;51.380;0.098;2022-09-12T07:54:00;12.25;;;7.00;;
63259;SDS011;49390;51.380;0.098;2022-09-12T07:56:29;12.20;;;6.70;;
63259;SDS011;49390;51.380;0.098;2022-09-12T07:59:05;18.25;;;7.32;;
63259;SDS011;49390;51.380;0.098;2022-09-12T08:01:36;17.23;;;6.88;;
63259;SDS011;49390;51.380;0.098;2022-09-12T08:04:06;11.50;;;6.03;;
63259;SDS011;49390;51.380;0.098;2022-09-12T08:06:34;10.07;;;6.35;;
63259;SDS011;49390;51.380;0.098;2022-09-12T08:09:04;12.40;;;6.47;;
63259;SDS011;49390;51.380;0.098;2022-09-12T08:11:33;13.73;;;6.20;;
63259;SDS011;49390;51.380;0.098;2022-09-12T08:14:01;11.38;;;6.22;;
63259;SDS011;49390;51.380;0.098;2022-09-12T08:16:32;12.48;;;6.60;;
63259;SDS011;49390;51.380;0.098;2022-09-12T08:19:02;12.88;;;6.22;;
63259;SDS011;49390;51.380;0.098;2022-09-12T08:21:31;13.27;;;6.43;;
63259;SDS011;49390;51.380;0.098;2022-09-12T08:24:03;14.55;;;6.28;;
63259;SDS011;49390;51.380;0.098;2022-09-12T08:26:34;14.10;;;6.32;;
63259;SDS011;49390;51.380;0.098;2022-09-12T08:29:02;13.45;;;6.00;;
63259;SDS011;49390;51.380;0.098;2022-09-12T08:31:31;11.40;;;5.95;;
63259;SDS011;49390;51.380;0.098;2022-09-12T08:34:04;14.38;;;6.32;;
63259;SDS011;49390;51.380;0.098;2022-09-12T08:36:34;11.10;;;5.68;;
63259;SDS011;49390;51.380;0.098;2022-09-12T08:39:04;11.82;;;5.97;;
63259;SDS011;49390;51.380;0.098;2022-09-12T08:41:37;11.00;;;5.45;;
63259;SDS011;49390;51.380;0.098;2022-09-12T08:47:40;13.07;;;5.53;;
63259;SDS011;49390;51.380;0.098;2022-09-12T08:50:13;10.40;;;5.70;;
63259;SDS011;49390;51.380;0.098;2022-09-12T08:58:12;13.50;;;5.55;;
63259;SDS011;49390;51.380;0.098;2022-09-12T09:06:13;12.13;;;6.03;;
63259;SDS011;49390;51.380;0.098;2022-09-12T09:11:39;11.23;;;4.93;;
63259;SDS011;49390;51.380;0.098;2022-09-12T09:17:37;10.05;;;5.10;;
63259;SDS011;49390;51.380;0.098;2022-09-12T09:23:14;9.30;;;5.00;;
63259;SDS011;49390;51.380;0.098;2022-09-12T09:25:59;12.30;;;5.35;;
63259;SDS011;49390;51.380;0.098;2022-09-12T09:28:57;9.32;;;4.88;;
63259;SDS011;49390;51.380;0.098;2022-09-12T09:31:32;8.63;;;4.55;;
63259;SDS011;49390;51.380;0.098;2022-09-12T09:34:23;9.57;;;4.70;;
63259;SDS011;49390;51.380;0.098;2022-09-12T09:39:36;12.73;;;5.15;;
63259;SDS011;49390;51.380;0.098;2022-09-12T09:42:18;10.50;;;4.30;;
63259;SDS011;49390;51.380;0.098;2022-09-12T09:45:13;8.23;;;4.25;;
63259;SDS011;49390;51.380;0.098;2022-09-12T09:47:45;8.15;;;4.75;;
63259;SDS011;49390;51.380;0.098;2022-09-12T09:50:19;8.50;;;4.47;;
63259;SDS011;49390;51.380;0.098;2022-09-12T09:52:48;7.07;;;4.00;;
63259;SDS011;49390;51.380;0.098;2022-09-12T09:55:20;8.88;;;4.43;;
63259;SDS011;49390;51.380;0.098;2022-09-12T09:57:56;8.23;;;4.30;;
63259;SDS011;49390;51.380;0.098;2022-09-12T10:00:31;8.40;;;4.22;;
63259;SDS011;49390;51.380;0.098;2022-09-12T10:05:30;7.53;;;4.00;;
63259;SDS011;49390;51.380;0.098;2022-09-12T10:08:18;25.67;;;13.82;;
63259;SDS011;49390;51.380;0.098;2022-09-12T10:10:58;9.80;;;5.63;;
63259;SDS011;49390;51.380;0.098;2022-09-12T10:13:52;10.77;;;6.00;;
63259;SDS011;49390;51.380;0.098;2022-09-12T10:16:32;7.57;;;4.82;;
63259;SDS011;49390;51.380;0.098;2022-09-12T10:19:20;8.43;;;4.13;;
63259;SDS011;49390;51.380;0.098;2022-09-12T10:21:56;9.45;;;4.72;;
63259;SDS011;49390;51.380;0.098;2022-09-12T10:24:29;9.73;;;5.63;;
63259;SDS011;49390;51.380;0.098;2022-09-12T10:27:14;9.52;;;5.75;;
63259;SDS011;49390;51.380;0.098;2022-09-12T10:29:48;10.68;;;6.05;;
63259;SDS011;49390;51.380;0.098;2022-09-12T10:32:30;10.25;;;5.90;;
63259;SDS011;49390;51.380;0.098;2022-09-12T10:37:56;18.52;;;12.30;;
63259;SDS011;49390;51.380;0.098;2022-09-12T10:40:38;13.93;;;8.00;;
63259;SDS011;49390;51.380;0.098;2022-09-12T10:43:44;16.55;;;9.27;;
63259;SDS011;49390;51.380;0.098;2022-09-12T10:46:19;11.73;;;7.35;;
63259;SDS011;49390;51.380;0.098;2022-09-12T10:48:51;8.68;;;5.78;;
63259;SDS011;49390;51.380;0.098;2022-09-12T10:51:39;9.38;;;5.28;;
63259;SDS011;49390;51.380;0.098;2022-09-12T10:54:11;8.85;;;5.07;;
63259;SDS011;49390;51.380;0.098;2022-09-12T10:57:16;9.85;;;5.50;;
63259;SDS011;49390;51.380;0.098;2022-09-12T11:00:10;9.15;;;5.15;;
63259;SDS011;49390;51.380;0.098;2022-09-12T11:02:50;9.10;;;4.75;;
63259;SDS011;49390;51.380;0.098;2022-09-12T11:08:41;9.35;;;4.03;;
63259;SDS011;49390;51.380;0.098;2022-09-12T11:11:35;8.88;;;4.35;;
63259;SDS011;49390;51.380;0.098;2022-09-12T11:14:16;7.95;;;3.50;;
63259;SDS011;49390;51.380;0.098;2022-09-12T11:25:18;6.35;;;4.07;;
63259;SDS011;49390;51.380;0.098;2022-09-12T11:34:15;8.30;;;4.50;;
63259;SDS011;49390;51.380;0.098;2022-09-12T11:40:04;7.22;;;3.95;;
63259;SDS011;49390;51.380;0.098;2022-09-12T11:42:56;12.40;;;5.03;;
63259;SDS011;49390;51.380;0.098;2022-09-12T11:45:38;8.13;;;4.50;;
63259;SDS011;49390;51.380;0.098;2022-09-12T11:48:13;8.60;;;4.30;;
63259;SDS011;49390;51.380;0.098;2022-09-12T11:50:47;8.60;;;3.70;;
63259;SDS011;49390;51.380;0.098;2022-09-12T11:53:18;7.25;;;3.80;;
63259;SDS011;49390;51.380;0.098;2022-09-12T11:58:32;5.28;;;3.75;;
63259;SDS011;49390;51.380;0.098;2022-09-12T12:01:20;6.43;;;3.70;;
63259;SDS011;49390;51.380;0.098;2022-09-12T12:03:53;6.47;;;3.60;;
63259;SDS011;49390;51.380;0.098;2022-09-12T12:06:25;6.50;;;3.87;;
63259;SDS011;49390;51.380;0.098;2022-09-12T12:08:59;7.53;;;3.95;;
63259;SDS011;49390;51.380;0.098;2022-09-12T12:11:33;8.43;;;3.78;;
63259;SDS011;49390;51.380;0.098;2022-09-12T12:14:16;6.30;;;3.75;;
63259;SDS011;49390;51.380;0.098;2022-09-12T12:16:50;7.90;;;3.58;;
63259;SDS011;49390;51.380;0.098;2022-09-12T12:22:15;12.10;;;4.35;;
63259;SDS011;49390;51.380;0.098;2022-09-12T12:27:57;6.65;;;3.70;;
63259;SDS011;49390;51.380;0.098;2022-09-12T12:35:43;5.70;;;3.58;;
63259;SDS011;49390;51.380;0.098;2022-09-12T12:38:31;7.18;;;3.80;;
63259;SDS011;49390;51.380;0.098;2022-09-12T12:43:47;7.70;;;3.30;;
63259;SDS011;49390;51.380;0.098;2022-09-12T12:46:20;7.18;;;3.20;;
63259;SDS011;49390;51.380;0.098;2022-09-12T12:49:34;6.90;;;3.25;;
63259;SDS011;49390;51.380;0.098;2022-09-12T12:51:54;6.20;;;3.13;;
63259;SDS011;49390;51.380;0.098;2022-09-12T12:54:26;6.78;;;3.30;;
63259;SDS011;49390;51.380;0.098;2022-09-12T12:57:26;7.25;;;3.30;;
63259;SDS011;49390;51.380;0.098;2022-09-12T13:00:24;6.57;;;3.50;;
63259;SDS011;49390;51.380;0.098;2022-09-12T13:05:43;6.38;;;3.53;;
63259;SDS011;49390;51.380;0.098;2022-09-12T13:10:50;5.50;;;3.28;;
63259;SDS011;49390;51.380;0.098;2022-09-12T13:13:25;5.43;;;3.10;;
63259;SDS011;49390;51.380;0.098;2022-09-12T13:15:58;5.50;;;3.28;;
63259;SDS011;49390;51.380;0.098;2022-09-12T13:18:28;6.32;;;3.10;;
63259;SDS011;49390;51.380;0.098;2022-09-12T13:21:16;5.03;;;3.13;;
63259;SDS011;49390;51.380;0.098;2022-09-12T13:24:01;6.30;;;3.15;;
63259;SDS011;49390;51.380;0.098;2022-09-12T13:26:33;5.93;;;3.08;;
63259;SDS011;49390;51.380;0.098;2022-09-12T13:29:08;7.35;;;3.50;;
63259;SDS011;49390;51.380;0.098;2022-09-12T13:31:57;5.85;;;3.05;;
63259;SDS011;49390;51.380;0.098;2022-09-12T13:34:29;5.68;;;2.90;;
63259;SDS011;49390;51.380;0.098;2022-09-12T13:37:20;8.18;;;3.42;;
63259;SDS011;49390;51.380;0.098;2022-09-12T13:45:36;6.93;;;3.35;;
63259;SDS011;49390;51.380;0.098;2022-09-12T13:48:15;7.38;;;3.50;;
63259;SDS011;49390;51.380;0.098;2022-09-12T13:50:50;6.72;;;3.30;;
63259;SDS011;49390;51.380;0.098;2022-09-12T13:53:29;6.07;;;3.30;;
63259;SDS011;49390;51.380;0.098;2022-09-12T13:56:07;5.63;;;3.30;;
63259;SDS011;49390;51.380;0.098;2022-09-12T13:58:55;6.53;;;3.30;;
63259;SDS011;49390;51.380;0.098;2022-09-12T14:01:38;5.23;;;3.40;;
63259;SDS011;49390;51.380;0.098;2022-09-12T14:04:30;5.85;;;3.20;;
63259;SDS011;49390;51.380;0.098;2022-09-12T14:07:20;6.38;;;3.20;;
63259;SDS011;49390;51.380;0.098;2022-09-12T14:09:55;6.30;;;3.15;;
63259;SDS011;49390;51.380;0.098;2022-09-12T14:12:33;5.20;;;3.10;;
63259;SDS011;49390;51.380;0.098;2022-09-12T14:15:17;5.28;;;3.10;;
63259;SDS011;49390;51.380;0.098;2022-09-12T14:17:59;6.28;;;3.58;;
63259;SDS011;49390;51.380;0.098;2022-09-12T14:20:35;6.03;;;3.55;;
63259;SDS011;49390;51.380;0.098;2022-09-12T14:23:16;6.85;;;3.55;;
63259;SDS011;49390;51.380;0.098;2022-09-12T14:26:33;6.68;;;3.40;;
63259;SDS011;49390;51.380;0.098;2022-09-12T14:29:04;5.10;;;3.08;;
63259;SDS011;49390;51.380;0.098;2022-09-12T14:31:40;5.57;;;3.05;;
63259;SDS011;49390;51.380;0.098;2022-09-12T14:34:30;5.50;;;3.10;;
63259;SDS011;49390;51.380;0.098;2022-09-12T14:36:58;5.53;;;3.42;;
63259;SDS011;49390;51.380;0.098;2022-09-12T14:39:36;6.55;;;3.30;;
63259;SDS011;49390;51.380;0.098;2022-09-12T14:42:18;8.93;;;3.20;;
63259;SDS011;49390;51.380;0.098;2022-09-12T14:44:52;5.82;;;2.90;;
63259;SDS011;49390;51.380;0.098;2022-09-12T14:47:34;5.80;;;3.15;;
63259;SDS011;49390;51.380;0.098;2022-09-12T14:50:20;7.00;;;3.47;;
63259;SDS011;49390;51.380;0.098;2022-09-12T14:53:02;6.15;;;3.30;;
63259;SDS011;49390;51.380;0.098;2022-09-12T14:55:51;7.18;;;3.40;;
63259;SDS011;49390;51.380;0.098;2022-09-12T14:58:26;9.80;;;3.55;;
63259;SDS011;49390;51.380;0.098;2022-09-12T15:03:48;6.10;;;3.28;;
63259;SDS011;49390;51.380;0.098;2022-09-12T15:06:31;6.63;;;3.47;;
63259;SDS011;49390;51.380;0.098;2022-09-12T15:09:05;7.53;;;3.75;;
63259;SDS011;49390;51.380;0.098;2022-09-12T15:11:41;6.90;;;3.50;;
63259;SDS011;49390;51.380;0.098;2022-09-12T15:14:12;8.02;;;3.63;;
63259;SDS011;49390;51.380;0.098;2022-09-12T15:16:42;6.32;;;3.35;;
63259;SDS011;49390;51.380;0.098;2022-09-12T15:19:11;8.00;;;3.60;;
63259;SDS011;49390;51.380;0.098;2022-09-12T15:21:40;8.10;;;3.60;;
63259;SDS011;49390;51.380;0.098;2022-09-12T15:24:09;9.32;;;3.47;;
63259;SDS011;49390;51.380;0.098;2022-09-12T15:26:38;8.85;;;3.88;;
63259;SDS011;49390;51.380;0.098;2022-09-12T15:29:07;8.52;;;3.70;;
63259;SDS011;49390;51.380;0.098;2022-09-12T15:31:35;6.18;;;3.80;;
63259;SDS011;49390;51.380;0.098;2022-09-12T15:34:03;7.75;;;3.83;;
63259;SDS011;49390;51.380;0.098;2022-09-12T15:36:32;7.90;;;3.75;;
63259;SDS011;49390;51.380;0.098;2022-09-12T15:39:00;7.97;;;3.72;;
63259;SDS011;49390;51.380;0.098;2022-09-12T15:41:30;7.47;;;4.43;;
63259;SDS011;49390;51.380;0.098;2022-09-12T15:44:12;5.95;;;3.65;;
63259;SDS011;49390;51.380;0.098;2022-09-12T15:46:41;8.18;;;3.45;;
63259;SDS011;49390;51.380;0.098;2022-09-12T15:49:10;7.90;;;3.40;;
63259;SDS011;49390;51.380;0.098;2022-09-12T15:51:39;5.93;;;3.58;;
63259;SDS011;49390;51.380;0.098;2022-09-12T15:54:08;7.40;;;3.80;;
63259;SDS011;49390;51.380;0.098;2022-09-12T15:56:40;7.97;;;3.63;;
63259;SDS011;49390;51.380;0.098;2022-09-12T15:59:08;7.03;;;3.75;;
63259;SDS011;49390;51.380;0.098;2022-09-12T16:01:37;8.35;;;3.60;;
63259;SDS011;49390;51.380;0.098;2022-09-12T16:04:17;7.47;;;3.63;;
63259;SDS011;49390;51.380;0.098;2022-09-12T16:06:50;7.97;;;3.70;;
63259;SDS011;49390;51.380;0.098;2022-09-12T16:09:20;7.27;;;3.53;;
63259;SDS011;49390;51.380;0.098;2022-09-12T16:11:49;8.02;;;3.75;;
63259;SDS011;49390;51.380;0.098;2022-09-12T16:14:17;8.27;;;3.72;;
63259;SDS011;49390;51.380;0.098;2022-09-12T16:16:50;6.28;;;3.63;;
63259;SDS011;49390;51.380;0.098;2022-09-12T16:19:20;6.90;;;3.38;;
63259;SDS011;49390;51.380;0.098;2022-09-12T16:21:49;6.65;;;3.50;;
63259;SDS011;49390;51.380;0.098;2022-09-12T16:24:18;7.25;;;3.58;;
63259;SDS011;49390;51.380;0.098;2022-09-12T16:26:46;8.20;;;3.60;;
63259;SDS011;49390;51.380;0.098;2022-09-12T16:29:19;7.85;;;3.67;;
63259;SDS011;49390;51.380;0.098;2022-09-12T16:31:50;6.78;;;3.80;;
63259;SDS011;49390;51.380;0.098;2022-09-12T16:34:18;7.00;;;3.95;;
63259;SDS011;49390;51.380;0.098;2022-09-12T16:36:47;7.57;;;3.40;;
63259;SDS011;49390;51.380;0.098;2022-09-12T16:39:15;6.55;;;3.70;;
63259;SDS011;49390;51.380;0.098;2022-09-12T16:41:44;7.13;;;3.35;;
63259;SDS011;49390;51.380;0.098;2022-09-12T16:44:12;6.47;;;3.47;;
63259;SDS011;49390;51.380;0.098;2022-09-12T16:46:51;6.40;;;3.25;;
63259;SDS011;49390;51.380;0.098;2022-09-12T16:49:19;6.10;;;3.22;;
63259;SDS011;49390;51.380;0.098;2022-09-12T16:51:48;6.93;;;3.30;;
63259;SDS011;49390;51.380;0.098;2022-09-12T16:54:16;5.50;;;3.20;;
63259;SDS011;49390;51.380;0.098;2022-09-12T16:56:45;5.18;;;3.10;;
63259;SDS011;49390;51.380;0.098;2022-09-12T16:59:15;8.43;;;3.45;;
63259;SDS011;49390;51.380;0.098;2022-09-12T17:01:43;8.68;;;3.42;;
63259;SDS011;49390;51.380;0.098;2022-09-12T17:04:12;7.90;;;3.70;;
63259;SDS011;49390;51.380;0.098;2022-09-12T17:06:40;7.90;;;3.47;;
63259;SDS011;49390;51.380;0.098;2022-09-12T17:09:09;7.88;;;3.30;;
63259;SDS011;49390;51.380;0.098;2022-09-12T17:11:38;7.53;;;3.33;;
63259;SDS011;49390;51.380;0.098;2022-09-12T17:14:06;7.07;;;3.20;;
63259;SDS011;49390;51.380;0.098;2022-09-12T17:16:39;7.60;;;3.67;;
63259;SDS011;49390;51.380;0.098;2022-09-12T17:19:15;7.82;;;3.33;;
63259;SDS011;49390;51.380;0.098;2022-09-12T17:21:46;6.82;;;3.40;;
63259;SDS011;49390;51.380;0.098;2022-09-12T17:24:17;8.05;;;3.50;;
63259;SDS011;49390;51.380;0.098;2022-09-12T17:26:45;7.13;;;3.63;;
63259;SDS011;49390;51.380;0.098;2022-09-12T17:29:14;7.40;;;4.00;;
63259;SDS011;49390;51.380;0.098;2022-09-12T17:31:51;9.90;;;4.30;;